Friday, April 29, 2016
08:06 UTC
  |  Log In   |  Register Free
Airport Search:

Petaluma Municipal Airport
(KO69)

Petaluma Municipal Airport Diagram
No Airport Diagram Available

FAA data valid effective Mar 31 2016 - May 26 2016 (unless otherwise noted).

 
 
 
 
 
 
 
 
 
 
 
 
 
 
Current Aviation Weather for KO69

Weather Summary


The most recent METAR observation for O69 was updated at: 12:55 UTC
METAR for KO69 is not available. Closest METAR is for KDVO
KO69  (most recent observation was updatred at 29:07 UTC)
290755Z AUTO 00000KT 8SM SCT003 BKN018 08/08 A2999 RMK AO1

KDVO  (7.3 nm NW)   (most recent observation was updated at 29:07 UTC)
290755Z AUTO 00000KT 10SM 09/08 A2998 RMK AO2

KAPC  (15.6 nm NW)   (most recent observation was updated at 29:07 UTC)
290754Z AUTO 25005KT 10SM CLR 11/09 A2997 RMK AO2 SLP138 T01110089 402330039

TAF for KO69 is not available.
KSTS  (18.0 nm SE)   (most recent observation was updatred at 29:05 UTC)
290542Z 2906/3006 32006KT P6SM SKC FM291300 34004KT P6SM BKN010 FM291600 32005KT P6SM SCT015 FM291900 28008KT P6SM SKC FM292300 30013G19KT P6SM SKC


KSUU  (32.0 nm SW)   (most recent observation was updatred at 29:07 UTC)
AMD 290733Z 2907/3009 24012KT 9999 FEW200 QNH2990INS TEMPO 2907/2910 24015G25KT BECMG 2918/2919 24012G18KT 9999 FEW200 QNH2987INS TEMPO 2921/3003 24015G25KT BECMG 3006/3007 24012KT 9999 FEW200 QNH2986INS TX24/2923Z TN10/2914Z


GlobalAir.com is loading additional information.
 Current Weather at O69
48.0 F° (9.0 C°)

North winds at 3.5 mph
Pressure:
29.99 in
Humidity:
94%
Wind:
North at 3.5 mph
Dew Point:
46.4 F° (8.0 C°)
Visibility:
1.75 mi
O69 NOAA Radar




Find All Airport Services Find A Hotel Find A Rental Car Find A Golf Course Find A Restaurant $100 Hamburger



Airport Weather Forecast for KO69

Translated METAR for KO69 (0755 UTC)
METAR:
KO69 290755Z AUTO 00000KT 8SM SCT003 BKN018 08/08 A2999 RMK AO1
Conditions at:
KO69 (Petaluma Muni, CA) observed 0755 UTC 29 April 2016
Temperature:
8°C (46.4°F)
Dewpoint:
8°C (46.4°F) [RH = 100]
Pressure:
29.99 inches Hg (1015.6 mb)
Winds:
from the N (000 degrees) at 0 mph (0 knots: 0 m/s)
Visibility:
8 mile(s)
Ceiling:
1,800 feet AGL
Clouds:
Scattered Clouds at 300 feet AGL
Broken Cloud Cover at 1,800 feet AGL
Remarks:
site is un-manned

Translated TAF for KSTS (Charles M Schulz - Sonoma County, CA) (0542 UTC)
TAF text:
KSTS 290542Z 2906/3006 32006KT P6SM SKC
Forecast period:
Friday Apr 29 2016 06:00 UTC - Saturday Apr 30 2016 06:00 UTC
Forecast type:
FROM: standard forecast or significant change
Winds:
from the NW (320 degrees) at 6.9 mph (6 knots: 3.1 m/s)
Visibility:
6 or more mile(s) (9.7+ km)
Ceiling:
at least 12,000 feet AGL
Clouds:
Clear Skies
Weather:
no significant weather observed at this time
TAF text:
FM291300 34004KT P6SM BKN010
Forecast period:
Friday Apr 29 2016 13:00 UTC - Friday Apr 29 2016 16:00 UTC
Forecast type:
FROM: standard forecast or significant change
Winds:
from the NNW (340 degrees) at 4.6 mph (4 knots: 2.1 m/s)
Visibility:
6 or more mile(s) (9.7+ km)
Ceiling:
1,000 feet AGL
Clouds:
Broken Cloud Cover at 1,000 feet AGL
Weather:
no significant weather observed at this time
TAF text:
FM291600 32005KT P6SM SCT015
Forecast period:
Friday Apr 29 2016 16:00 UTC - Friday Apr 29 2016 19:00 UTC
Forecast type:
FROM: standard forecast or significant change
Winds:
from the NW (320 degrees) at 5.8 mph (5 knots: 2.6 m/s)
Visibility:
6 or more mile(s) (9.7+ km)
Ceiling:
at least 12,000 feet AGL
Clouds:
Scattered Clouds at 1,500 feet AGL
Weather:
no significant weather observed at this time
TAF text:
FM291900 28008KT P6SM SKC
Forecast period:
Friday Apr 29 2016 19:00 UTC - Friday Apr 29 2016 23:00 UTC
Forecast type:
FROM: standard forecast or significant change
Winds:
from the W (280 degrees) at 9.2 mph (8 knots: 4.1 m/s)
Visibility:
6 or more mile(s) (9.7+ km)
Ceiling:
at least 12,000 feet AGL
Clouds:
Clear Skies
Weather:
no significant weather observed at this time
TAF text:
FM292300 30013G19KT P6SM SKC
Forecast period:
Friday Apr 29 2016 23:00 UTC - Saturday Apr 30 2016 06:00 UTC
Forecast type:
FROM: standard forecast or significant change
Winds:
from the WNW (300 degrees) at 15 mph (13 knots: 6.7 m/s)
gusting to 21.9 mph (19 knots: 9.8 m/s)
Visibility:
6 or more mile(s) (9.7+ km)
Ceiling:
at least 12,000 feet AGL
Clouds:
Clear Skies
Weather:
no significant weather observed at this time
FBO's on the Field
FBO Company Facility Photos Services Transportation Aviation Fuel Prices: Prices include tax
Catering Weather Repair Courtesy Rental Type 100LL JetA JetA+ MOGAS 8087
 
Petaluma Municipal Airport

Currently rated 5 by 1 person
FS:Shell
Last Updated: Apr-25
Login to update fuel prices
SS:
Contact Petaluma Municipal AirportMore FBO Information
 
Add another FBO Facility Photos Catering Weather Repair Courtesy Rental Type 100LL JetA JetA+ MOGAS 8087
Services Transportation Aviation Fuel Prices: Prices include tax


model-print
model-print
model-print
model-print